createdAt,value
2019-02-19T00:00:48.611Z,21.60
2019-02-19T00:03:38.248Z,20.48
2019-02-19T00:06:28.415Z,21.10
2019-02-19T00:09:18.601Z,22.70
2019-02-19T00:12:08.773Z,23.77
2019-02-19T00:14:58.372Z,23.35
2019-02-19T00:17:48.538Z,21.40
2019-02-19T00:20:39.495Z,22.80
2019-02-19T00:23:29.342Z,22.00
2019-02-19T00:26:19.853Z,23.77
2019-02-19T00:29:09.714Z,23.10
2019-02-19T00:31:59.734Z,25.20
2019-02-19T00:34:49.605Z,23.45
2019-02-19T00:37:39.071Z,24.90
2019-02-19T00:40:29.947Z,24.63
2019-02-19T00:43:27.305Z,24.85
2019-02-19T00:46:17.188Z,23.85
2019-02-19T00:49:06.804Z,24.23
2019-02-19T00:51:56.465Z,22.80
2019-02-19T00:54:46.523Z,21.90
2019-02-19T00:57:36.636Z,23.67
2019-02-19T01:00:26.554Z,25.25
2019-02-19T01:03:16.517Z,24.80
2019-02-19T01:06:06.815Z,24.32
2019-02-19T01:08:56.755Z,24.60
2019-02-19T01:11:46.464Z,24.67
2019-02-19T01:14:36.314Z,23.15
2019-02-19T01:17:26.336Z,23.45
2019-02-19T01:20:16.882Z,24.50
2019-02-19T01:23:07.142Z,24.07
2019-02-19T01:25:56.784Z,25.50
2019-02-19T01:28:46.539Z,25.80
2019-02-19T01:31:36.834Z,24.43
2019-02-19T01:34:26.760Z,24.40
2019-02-19T01:37:16.482Z,25.10
2019-02-19T01:40:07.083Z,25.88
2019-02-19T01:42:57.094Z,24.25
2019-02-19T01:45:47.990Z,26.48
2019-02-19T01:48:37.654Z,24.30
2019-02-19T01:51:27.676Z,24.12
2019-02-19T01:54:17.464Z,24.00
2019-02-19T01:57:07.725Z,25.27
2019-02-19T01:59:57.234Z,26.15
2019-02-19T02:02:47.194Z,26.90
2019-02-19T02:05:36.972Z,25.72
2019-02-19T02:08:26.844Z,23.30
2019-02-19T02:11:16.985Z,23.98
2019-02-19T02:14:06.915Z,27.05
2019-02-19T02:16:56.622Z,25.52
2019-02-19T02:19:46.563Z,27.40
2019-02-19T02:22:36.482Z,26.37
2019-02-19T02:25:26.452Z,25.97
2019-02-19T02:28:16.165Z,25.82
2019-02-19T02:31:06.404Z,25.55
2019-02-19T02:33:56.314Z,24.45
2019-02-19T02:36:46.461Z,25.52
2019-02-19T02:39:36.188Z,26.57
2019-02-19T02:42:26.257Z,25.57
2019-02-19T02:45:16.052Z,27.13
2019-02-19T02:48:06.222Z,23.45
2019-02-19T02:50:56.371Z,26.77
2019-02-19T02:53:46.291Z,25.65
2019-02-19T02:56:36.381Z,25.12
2019-02-19T02:59:26.062Z,24.60
2019-02-19T03:02:15.712Z,25.60
2019-02-19T03:05:05.941Z,23.95
2019-02-19T03:07:58.345Z,25.10
2019-02-19T03:10:48.584Z,23.98
2019-02-19T03:13:38.536Z,26.75
2019-02-19T03:16:28.536Z,27.20
2019-02-19T03:19:18.186Z,27.80
2019-02-19T03:22:08.514Z,25.02
2019-02-19T03:24:57.999Z,25.97
2019-02-19T03:27:47.932Z,25.68
2019-02-19T03:30:38.153Z,25.45
2019-02-19T03:33:28.524Z,26.15
2019-02-19T03:36:18.397Z,25.80
2019-02-19T03:39:08.492Z,23.30
2019-02-19T03:41:58.628Z,23.85
2019-02-19T03:44:48.464Z,24.07
2019-02-19T03:47:38.361Z,24.00
2019-02-19T03:50:28.235Z,23.47
2019-02-19T03:53:18.136Z,22.50
2019-02-19T03:56:08.604Z,22.75
2019-02-19T03:58:58.530Z,22.10
2019-02-19T04:01:48.372Z,23.42
2019-02-19T04:04:38.294Z,22.77
2019-02-19T04:07:28.123Z,21.45
2019-02-19T04:10:18.205Z,20.85
2019-02-19T04:13:07.873Z,18.50
2019-02-19T04:15:57.725Z,20.77
2019-02-19T04:18:47.648Z,19.00
2019-02-19T04:21:37.976Z,19.45
2019-02-19T04:24:27.712Z,20.55
2019-02-19T04:27:17.500Z,17.23
2019-02-19T04:30:07.513Z,18.73
2019-02-19T04:32:57.206Z,16.95
2019-02-19T04:35:46.873Z,16.25
2019-02-19T04:38:36.831Z,17.50
2019-02-19T04:41:26.739Z,16.37
2019-02-19T04:44:16.776Z,15.30
2019-02-19T04:47:06.505Z,14.58
2019-02-19T04:49:56.453Z,15.95
2019-02-19T04:52:46.576Z,13.60
2019-02-19T04:55:36.355Z,14.60
2019-02-19T04:58:26.454Z,16.70
2019-02-19T05:01:16.118Z,16.12
2019-02-19T05:04:05.817Z,18.55
2019-02-19T05:06:55.497Z,19.75
2019-02-19T05:09:45.195Z,19.10
2019-02-19T05:12:35.093Z,21.90
2019-02-19T05:15:24.894Z,25.30
2019-02-19T05:18:14.985Z,24.27
2019-02-19T05:21:04.932Z,25.08
2019-02-19T05:23:54.832Z,27.13
2019-02-19T05:26:44.625Z,28.10
2019-02-19T05:29:34.326Z,25.20
2019-02-19T05:32:24.308Z,26.80
2019-02-19T05:35:15.115Z,23.50
2019-02-19T05:38:05.202Z,24.32
2019-02-19T05:40:55.080Z,25.05
2019-02-19T05:43:44.779Z,22.60
2019-02-19T05:46:34.956Z,20.17
2019-02-19T05:49:24.994Z,20.80
2019-02-19T05:52:15.146Z,19.45
2019-02-19T05:55:05.336Z,17.75
2019-02-19T05:57:55.392Z,19.23
2019-02-19T06:00:45.256Z,17.23
2019-02-19T06:03:35.025Z,19.05
2019-02-19T06:06:25.112Z,20.25
2019-02-19T06:09:14.926Z,21.15
2019-02-19T06:12:04.475Z,21.40
2019-02-19T06:14:54.343Z,20.70
2019-02-19T06:17:43.917Z,21.30
2019-02-19T06:20:33.540Z,20.97
2019-02-19T06:23:23.303Z,20.90
2019-02-19T06:26:14.472Z,20.05
2019-02-19T06:29:04.634Z,20.95
2019-02-19T06:31:54.468Z,19.75
2019-02-19T06:34:44.567Z,20.85
2019-02-19T06:37:34.745Z,18.32
2019-02-19T06:40:33.456Z,16.97
2019-02-19T06:43:23.412Z,17.48
2019-02-19T06:46:13.311Z,19.07
2019-02-19T06:49:03.094Z,18.30
2019-02-19T06:51:53.175Z,16.90
2019-02-19T06:54:43.156Z,16.80
2019-02-19T06:57:33.151Z,16.15
2019-02-19T07:00:26.972Z,15.55
2019-02-19T07:03:21.472Z,13.90
2019-02-19T07:06:11.573Z,13.70
2019-02-19T07:09:01.465Z,13.18
2019-02-19T07:11:52.856Z,15.70
2019-02-19T07:14:42.665Z,14.30
2019-02-19T07:17:32.485Z,13.85
2019-02-19T07:20:22.303Z,12.78
2019-02-19T07:23:12.012Z,14.00
2019-02-19T07:26:03.224Z,13.53
2019-02-19T07:28:53.185Z,13.72
2019-02-19T07:31:43.373Z,13.43
2019-02-19T07:34:33.166Z,13.10
2019-02-19T07:37:23.027Z,12.00
2019-02-19T07:40:13.153Z,11.22
2019-02-19T07:43:03.254Z,10.98
2019-02-19T07:45:53.165Z,12.40
2019-02-19T07:48:42.505Z,12.40
2019-02-19T07:51:32.676Z,11.60
2019-02-19T07:54:22.945Z,10.88
2019-02-19T07:57:12.735Z,10.58
2019-02-19T08:00:02.542Z,9.33
2019-02-19T08:02:53.622Z,10.08
2019-02-19T08:05:43.756Z,12.23
2019-02-19T08:08:33.693Z,9.60
2019-02-19T08:11:23.667Z,11.22
2019-02-19T08:14:13.485Z,10.10
2019-02-19T08:17:03.740Z,11.75
2019-02-19T08:19:53.965Z,11.00
2019-02-19T08:22:44.434Z,12.28
2019-02-19T08:25:34.135Z,11.50
2019-02-19T08:28:24.127Z,13.88
2019-02-19T08:31:14.245Z,11.83
2019-02-19T08:34:04.172Z,10.25
2019-02-19T08:36:53.944Z,11.35
2019-02-19T08:39:43.769Z,13.75
2019-02-19T08:42:33.992Z,10.23
2019-02-19T08:45:23.639Z,11.95
2019-02-19T08:48:13.387Z,11.83
2019-02-19T08:51:03.812Z,10.82
2019-02-19T08:53:53.754Z,11.60
2019-02-19T08:56:43.646Z,10.30
2019-02-19T08:59:33.802Z,8.60
2019-02-19T09:02:24.133Z,10.93
2019-02-19T09:05:14.185Z,10.03
2019-02-19T09:08:04.105Z,10.20
2019-02-19T09:10:53.852Z,9.33
2019-02-19T09:13:43.713Z,10.93
2019-02-19T09:16:33.365Z,9.08
2019-02-19T09:19:23.414Z,8.80
2019-02-19T09:22:13.575Z,9.58
2019-02-19T09:25:03.710Z,9.23
2019-02-19T09:27:53.861Z,10.82
2019-02-19T09:30:43.666Z,12.53
2019-02-19T09:33:33.335Z,10.25
2019-02-19T09:36:23.392Z,10.08
2019-02-19T09:39:13.052Z,11.22
2019-02-19T09:42:03.239Z,9.98
2019-02-19T09:44:53.105Z,10.28
2019-02-19T09:47:42.512Z,11.53
2019-02-19T09:50:33.327Z,13.85
2019-02-19T09:53:23.385Z,11.43
2019-02-19T09:56:12.597Z,11.15
2019-02-19T09:59:02.583Z,10.78
2019-02-19T10:01:52.606Z,10.45
2019-02-19T10:04:42.888Z,10.95
2019-02-19T10:07:33.354Z,10.58
2019-02-19T10:10:23.277Z,11.50
2019-02-19T10:13:13.236Z,12.07
2019-02-19T10:16:03.497Z,11.30
2019-02-19T10:18:53.453Z,10.20
2019-02-19T10:21:43.491Z,11.30
2019-02-19T10:24:33.655Z,11.20
2019-02-19T10:27:23.893Z,13.15
2019-02-19T10:30:15.197Z,10.35
2019-02-19T10:33:04.785Z,10.50
2019-02-19T10:35:57.572Z,11.08
2019-02-19T10:38:47.853Z,12.07
2019-02-19T10:41:38.886Z,10.78
2019-02-19T10:44:28.945Z,11.33
2019-02-19T10:47:18.796Z,10.95
2019-02-19T10:50:09.302Z,11.50
2019-02-19T10:52:59.197Z,10.25
2019-02-19T10:55:48.763Z,12.13
2019-02-19T10:58:38.813Z,12.00
2019-02-19T11:01:28.823Z,11.08
2019-02-19T11:04:18.776Z,10.60
2019-02-19T11:07:08.836Z,13.15
2019-02-19T11:09:58.908Z,13.68
2019-02-19T11:12:48.928Z,12.98
2019-02-19T11:15:39.023Z,11.55
2019-02-19T11:18:29.295Z,12.18
2019-02-19T11:21:20.018Z,11.70
2019-02-19T11:24:09.965Z,11.22
2019-02-19T11:27:00.220Z,11.20
2019-02-19T11:29:49.982Z,12.35
2019-02-19T11:32:39.713Z,11.60
2019-02-19T11:35:29.807Z,10.75
2019-02-19T11:38:19.383Z,10.95
2019-02-19T11:41:09.400Z,8.90
2019-02-19T11:43:59.050Z,10.93
2019-02-19T11:46:49.244Z,11.73
2019-02-19T11:49:39.046Z,13.48
2019-02-19T11:52:29.147Z,13.60
2019-02-19T11:55:19.073Z,14.83
2019-02-19T11:58:08.783Z,14.35
2019-02-19T12:00:58.441Z,14.60
2019-02-19T12:03:48.224Z,17.00
2019-02-19T12:06:38.014Z,17.02
2019-02-19T12:09:27.884Z,16.35
2019-02-19T12:12:17.680Z,16.10
2019-02-19T12:15:08.082Z,17.15
2019-02-19T12:17:58.266Z,15.90
2019-02-19T12:20:48.162Z,19.40
2019-02-19T12:23:38.085Z,18.62
2019-02-19T12:26:27.944Z,14.47
2019-02-19T12:29:17.935Z,14.95
2019-02-19T12:32:07.935Z,14.78
2019-02-19T12:34:57.954Z,15.90
2019-02-19T12:37:47.956Z,14.40
2019-02-19T12:40:37.962Z,11.88
2019-02-19T12:43:27.715Z,14.78
2019-02-19T12:46:17.702Z,14.98
2019-02-19T12:49:07.486Z,15.35
2019-02-19T12:51:57.217Z,12.73
2019-02-19T12:54:46.875Z,12.88
2019-02-19T12:57:36.946Z,11.85
2019-02-19T13:00:26.846Z,14.25
2019-02-19T13:03:16.639Z,12.30
2019-02-19T13:06:06.784Z,11.85
2019-02-19T13:08:56.936Z,13.15
2019-02-19T13:11:46.693Z,11.43
2019-02-19T13:14:39.085Z,12.05
2019-02-19T13:17:29.786Z,11.57
2019-02-19T13:20:19.847Z,11.60
2019-02-19T13:23:09.301Z,8.58
2019-02-19T13:25:59.326Z,11.48
2019-02-19T13:28:49.435Z,10.20
2019-02-19T13:31:39.383Z,9.25
2019-02-19T13:34:29.686Z,8.50
2019-02-19T13:37:19.950Z,7.97
2019-02-19T13:40:10.955Z,9.30
2019-02-19T13:43:00.677Z,7.95
2019-02-19T13:45:50.462Z,6.37
2019-02-19T13:48:40.731Z,6.20
2019-02-19T13:51:30.444Z,5.92
2019-02-19T13:54:31.743Z,6.80
2019-02-19T13:57:21.871Z,6.87
2019-02-19T14:00:16.733Z,7.30
2019-02-19T14:03:06.850Z,6.97
2019-02-19T14:05:56.405Z,6.67
2019-02-19T14:08:46.072Z,5.70
2019-02-19T14:11:35.865Z,5.92
2019-02-19T14:14:36.964Z,5.53
2019-02-19T14:17:26.885Z,5.65
2019-02-19T14:20:26.900Z,5.20
2019-02-19T14:23:34.494Z,4.78
2019-02-19T14:26:44.041Z,5.15
2019-02-19T14:29:52.454Z,7.08
2019-02-19T14:33:04.784Z,6.22
2019-02-19T14:36:12.255Z,5.53
2019-02-19T14:39:31.321Z,6.10
2019-02-19T14:42:38.818Z,5.97
2019-02-19T14:45:53.787Z,4.33
2019-02-19T14:49:04.324Z,4.25
2019-02-19T14:52:11.849Z,4.83
2019-02-19T14:55:12.275Z,5.05
2019-02-19T14:58:09.755Z,3.65
2019-02-19T15:01:17.335Z,6.30
2019-02-19T15:04:42.433Z,4.35
2019-02-19T15:08:00.485Z,5.42
2019-02-19T15:11:18.498Z,5.10
2019-02-19T15:14:26.940Z,5.70
2019-02-19T15:17:35.154Z,4.50
2019-02-19T15:20:55.550Z,4.50
2019-02-19T15:24:13.389Z,4.80
2019-02-19T15:27:09.892Z,4.65
2019-02-19T15:30:17.422Z,5.05
2019-02-19T15:33:25.119Z,5.28
2019-02-19T15:36:42.958Z,5.03
2019-02-19T15:39:49.225Z,4.33
2019-02-19T15:42:59.593Z,4.67
2019-02-19T15:46:06.874Z,4.40
2019-02-19T15:49:34.440Z,4.47
2019-02-19T15:52:35.281Z,4.95
2019-02-19T15:55:42.879Z,4.95
2019-02-19T15:59:01.021Z,4.20
2019-02-19T16:02:16.812Z,5.33
2019-02-19T16:05:28.502Z,6.70
2019-02-19T16:08:45.832Z,6.80
2019-02-19T16:11:57.830Z,4.70
2019-02-19T16:15:24.678Z,5.00
2019-02-19T16:18:30.852Z,5.62
2019-02-19T16:21:48.084Z,6.30
2019-02-19T16:24:59.758Z,4.30
2019-02-19T16:28:20.152Z,5.28
2019-02-19T16:31:36.252Z,5.75
2019-02-19T16:34:32.582Z,6.10
2019-02-19T16:37:38.237Z,6.65
2019-02-19T16:40:37.913Z,6.05
2019-02-19T16:43:44.723Z,5.17
2019-02-19T16:46:56.329Z,4.45
2019-02-19T16:50:17.531Z,4.65
2019-02-19T16:53:28.715Z,4.37
2019-02-19T16:56:36.104Z,5.87
2019-02-19T16:59:53.703Z,5.22
2019-02-19T17:03:04.792Z,3.40
2019-02-19T17:05:58.497Z,2.10
2019-02-19T17:09:13.765Z,2.05
2019-02-19T17:12:21.468Z,2.17
2019-02-19T17:15:30.349Z,2.05
2019-02-19T17:18:34.994Z,2.12
2019-02-19T17:21:31.763Z,2.00
2019-02-19T17:24:28.404Z,2.10
2019-02-19T17:27:25.966Z,1.77
2019-02-19T17:30:33.564Z,1.95
2019-02-19T17:33:38.172Z,1.65
2019-02-19T17:36:35.140Z,1.45
2019-02-19T17:39:44.384Z,1.30
2019-02-19T17:42:59.343Z,1.92
2019-02-19T17:45:57.536Z,1.27
2019-02-19T17:48:56.805Z,1.95
2019-02-19T17:52:07.198Z,2.05
2019-02-19T17:55:20.620Z,2.50
2019-02-19T17:58:28.937Z,2.72
2019-02-19T18:01:29.035Z,3.52
2019-02-19T18:04:24.780Z,4.15
2019-02-19T18:07:24.317Z,4.12
2019-02-19T18:10:32.699Z,5.05
2019-02-19T18:13:57.400Z,3.70
2019-02-19T18:17:03.634Z,5.97
2019-02-19T18:19:53.773Z,4.97
2019-02-19T18:22:43.853Z,5.67
2019-02-19T18:25:34.110Z,7.20
2019-02-19T18:28:24.436Z,5.28
2019-02-19T18:31:14.475Z,5.60
2019-02-19T18:34:05.314Z,6.30
2019-02-19T18:36:55.735Z,5.75
2019-02-19T18:39:47.101Z,5.45
2019-02-19T18:42:36.858Z,5.53
2019-02-19T18:45:27.685Z,7.20
2019-02-19T18:48:17.874Z,5.30
2019-02-19T18:51:08.349Z,6.03
2019-02-19T18:53:58.241Z,5.90
2019-02-19T18:56:49.703Z,4.92
2019-02-19T18:59:39.405Z,4.97
2019-02-19T19:02:29.658Z,5.10
2019-02-19T19:05:19.585Z,5.75
2019-02-19T19:08:09.301Z,5.80
2019-02-19T19:10:59.165Z,5.70
2019-02-19T19:13:49.245Z,5.45
2019-02-19T19:16:39.383Z,5.10
2019-02-19T19:19:29.499Z,4.47
2019-02-19T19:22:19.705Z,4.25
2019-02-19T19:25:10.043Z,4.97
2019-02-19T19:27:59.742Z,6.47
2019-02-19T19:30:49.342Z,7.08
2019-02-19T19:33:39.081Z,4.22
2019-02-19T19:36:29.199Z,4.92
2019-02-19T19:39:19.932Z,4.75
2019-02-19T19:42:10.062Z,5.55
2019-02-19T19:45:00.381Z,4.97
2019-02-19T19:47:51.194Z,5.87
2019-02-19T19:50:40.561Z,4.05
2019-02-19T19:53:30.906Z,5.33
2019-02-19T19:56:21.230Z,7.12
2019-02-19T19:59:11.144Z,3.80
2019-02-19T20:02:01.379Z,5.15
2019-02-19T20:04:51.685Z,4.42
2019-02-19T20:07:41.761Z,3.98
2019-02-19T20:10:32.562Z,5.45
2019-02-19T20:13:22.917Z,4.67
2019-02-19T20:16:13.130Z,6.58
2019-02-19T20:19:03.161Z,8.10
2019-02-19T20:21:53.674Z,5.40
2019-02-19T20:24:43.794Z,5.08
2019-02-19T20:27:34.244Z,6.30
2019-02-19T20:30:24.647Z,5.45
2019-02-19T20:33:15.122Z,5.28
2019-02-19T20:36:05.810Z,5.65
2019-02-19T20:38:56.394Z,6.92
2019-02-19T20:41:46.276Z,6.17
2019-02-19T20:44:36.144Z,6.58
2019-02-19T20:47:25.904Z,6.35
2019-02-19T20:50:15.671Z,7.35
2019-02-19T20:53:05.281Z,5.28
2019-02-19T20:55:55.861Z,5.90
2019-02-19T20:58:45.585Z,6.67
2019-02-19T21:01:35.511Z,6.60
2019-02-19T21:04:25.646Z,7.05
2019-02-19T21:07:15.443Z,5.72
2019-02-19T21:10:05.223Z,9.13
2019-02-19T21:12:56.331Z,6.50
2019-02-19T21:15:45.883Z,5.80
2019-02-19T21:18:36.695Z,7.22
2019-02-19T21:21:26.570Z,5.75
2019-02-19T21:24:16.673Z,5.10
2019-02-19T21:27:07.041Z,5.47
2019-02-19T21:29:57.160Z,6.15
2019-02-19T21:32:46.625Z,5.67
2019-02-19T21:35:36.503Z,6.53
2019-02-19T21:38:26.701Z,6.50
2019-02-19T21:41:16.908Z,5.67
2019-02-19T21:44:06.284Z,7.37
2019-02-19T21:46:56.146Z,6.92
2019-02-19T21:49:45.760Z,5.45
2019-02-19T21:52:35.902Z,5.95
2019-02-19T21:55:25.681Z,7.30
2019-02-19T21:58:15.784Z,6.10
2019-02-19T22:01:09.222Z,6.58
2019-02-19T22:03:59.574Z,7.08
2019-02-19T22:06:49.326Z,6.00
2019-02-19T22:09:39.327Z,4.78
2019-02-19T22:12:29.156Z,4.90
2019-02-19T22:15:19.086Z,4.65
2019-02-19T22:18:09.123Z,3.47
2019-02-19T22:21:04.436Z,7.10
2019-02-19T22:23:54.529Z,4.00
2019-02-19T22:26:44.554Z,4.05
2019-02-19T22:29:34.155Z,3.87
2019-02-19T22:32:25.091Z,4.40
2019-02-19T22:35:15.053Z,4.53
2019-02-19T22:38:05.291Z,4.50
2019-02-19T22:40:55.590Z,4.08
2019-02-19T22:43:45.685Z,3.80
2019-02-19T22:46:35.993Z,4.53
2019-02-19T22:53:27.892Z,4.83
2019-02-19T22:56:43.332Z,6.25
2019-02-19T22:59:33.272Z,5.25
2019-02-19T23:02:29.491Z,5.95
2019-02-19T23:05:19.215Z,5.70
2019-02-19T23:08:08.664Z,4.80
2019-02-19T23:10:58.777Z,5.00
2019-02-19T23:13:48.601Z,4.87
2019-02-19T23:16:38.413Z,5.25
2019-02-19T23:19:28.469Z,4.08
2019-02-19T23:22:21.646Z,4.58
2019-02-19T23:25:09.727Z,4.95
2019-02-19T23:27:59.771Z,4.60
2019-02-19T23:30:49.765Z,5.17
2019-02-19T23:33:39.630Z,5.20
2019-02-19T23:36:36.164Z,5.87
2019-02-19T23:39:25.861Z,4.78
2019-02-19T23:42:16.082Z,5.00
2019-02-19T23:45:06.451Z,4.47
2019-02-19T23:47:56.055Z,4.70
2019-02-19T23:50:45.873Z,4.08
2019-02-19T23:53:35.959Z,5.30
2019-02-19T23:56:25.942Z,4.53
2019-02-19T23:59:15.954Z,4.65
